METAR Data
IDs: Format: Raw Decoded Include TAF

Data at: 1357 UTC 14 Dec 2019

PAWS 141256Z AUTO 07012G22KT 10SM CLR 02/M07 A2961 RMK AO2 SLP034 T00171072 FZRANO
PAWS 141156Z AUTO 07011G22KT 10SM CLR 02/M08 A2961 RMK AO2 SLP032 T00221078 10028 20000 51009 FZRANO
PAWS 141056Z AUTO 06013G20KT 10SM CLR 03/M08 A2960 RMK AO2 SLP028 T00281083
PAWS 140956Z AUTO 06015G22KT 10SM BKN060 OVC075 03/M09 A2960 RMK AO2 SLP030 T00281089
PAWS 140856Z AUTO 07013G20KT 10SM OVC095 01/M10 A2958 RMK AO2 SLP023 T00111100 400280000 57004 FZRANO
PAWS 140756Z AUTO 06010G20KT 020V090 10SM OVC095 01/M10 A2958 RMK AO2 SLP024 T00061100 FZRANO
PAWS 140656Z AUTO 06013G18KT 10SM OVC100 00/M10 A2959 RMK AO2 SLP026 T00001100 FZRANO
PAWS 140556Z AUTO 05009G19KT 10SM CLR 01/M10 A2959 RMK AO2 SLP027 T00061100 10006 20000 56008 FZRANO
PAWS 140456Z AUTO 07011G17KT 10SM CLR 01/M09 A2960 RMK AO2 SLP028 T00061094 FZRANO
PAWS 140356Z AUTO 07005KT 10SM BKN100 01/M09 A2961 RMK AO2 SLP033 T00061094 FZRANO
PAWS 140256Z AUTO 08007KT 10SM BKN110 01/M09 A2962 RMK AO2 SLP035 T00061089 51001 FZRANO
PAWS 140156Z AUTO VRB06KT 10SM BKN110 01/M09 A2961 RMK AO2 SLP035 T00061089 FZRANO
PAWS 140056Z AUTO 06009KT 10SM CLR 00/M08 A2963 RMK AO2 SLP038 T00001083 FZRANO
PAWS 132356Z AUTO 06010KT 10SM CLR 00/M07 A2961 RMK AO2 SLP034 T00001072 10011 20000 51019 FZRANO
PAWS 132256Z AUTO 05007KT 10SM FEW090 00/M08 A2960 RMK AO2 SLP031 T00001083 FZRANO
PAWS 132156Z AUTO VRB03KT 10SM CLR 00/M08 A2958 RMK AO2 SLP024 T00001078 FZRANO
PAWS 132056Z AUTO 05005KT 10SM SCT085 01/M07 A2956 RMK AO2 SLP015 T00061072 53038 FZRANO
PAWS 131956Z AUTO 05009G15KT 10SM FEW085 01/M07 A2952 RMK AO2 SLP001 T00061072 FZRANO
PAWS 131856Z AUTO 06009KT 10SM CLR 01/M07 A2948 RMK AO2 SLP989 T00061072 FZRANO
PAWS 131756Z AUTO 06015G23KT 10SM CLR 01/M07 A2944 RMK AO2 SLP976 60000 T00061072 10017 20006 53024 FZRANO
PAWS 131556Z AUTO 06016KT 10SM FEW047 SCT075 02/M06 A2938 RMK AO2 SLP955 T00171061 FZRANO
PAWS 131456Z AUTO 06015G21KT 10SM FEW048 BKN080 02/M07 A2937 RMK AO2 SLP951 60000 T00171067 52026 FZRANO
PAWS 131356Z AUTO 06009KT 10SM FEW055 SCT110 01/M07 A2935 RMK AO2 RAB31E47 SLP944 P0000 T00111067 FZRANO
PAWS 131256Z AUTO 07007G18KT 10SM BKN090 01/M07 A2932 RMK AO2 SLP934 T00111067 FZRANO
PAWS 131156Z AUTO 07008G16KT 10SM FEW085 01/M07 A2929 RMK AO2 SLP925 T00111067 10033 20011 53009 FZRANO
PAWS 131056Z AUTO 06010KT 10SM CLR 01/M07 A2928 RMK AO2 SLP919 T00111067 FZRANO
PAWS 130956Z AUTO 08006G15KT 10SM CLR 02/M06 A2928 RMK AO2 SLP920 T00221056 FZRANO
PAWS 130856Z AUTO 13006KT 10SM BKN080 OVC090 03/M06 A2927 RMK AO2 PRESRR SLP915 T00281056 400440017 53016
PAWS 130756Z AUTO 06009KT 10SM CLR 02/M06 A2924 RMK AO2 SLP905 T00221056 FZRANO
PAWS 130656Z AUTO 23003KT 10SM CLR 02/M06 A2923 RMK AO2 SLP904 T00221056 FZRANO
PAWS 130556Z AUTO 07008KT 10SM CLR 03/M06 A2922 RMK AO2 SLP899 T00331056 10039 20028 55001
PAWS 130456Z AUTO 07007KT 10SM FEW075 OVC110 03/M06 A2921 RMK AO2 SLP897 T00331056
PAWS 130356Z AUTO 07005KT 10SM FEW080 OVC110 03/M06 A2922 RMK AO2 SLP899 T00331061
PAWS 130256Z AUTO 07005KT 10SM OVC090 03/M06 A2922 RMK AO2 SLP900 T00331061 58004